createdAt,value
2018-05-08T15:15:23.630Z,-40.00
2018-05-08T15:16:23.611Z,-40.00
2018-05-08T15:18:17.811Z,-40.00
2018-05-08T15:19:17.799Z,-40.00
2018-05-08T15:21:12.002Z,-40.00
2018-05-08T15:30:58.622Z,27.73
2018-05-08T15:31:58.540Z,27.70
2018-05-08T15:32:58.546Z,27.59
2018-05-08T15:33:58.559Z,27.57
2018-05-08T15:34:58.601Z,27.41
2018-05-08T15:35:58.686Z,27.35
2018-05-08T15:36:58.600Z,27.24
2018-05-08T15:37:58.640Z,27.16
2018-05-08T15:38:58.659Z,27.13
2018-05-08T15:39:58.646Z,27.19
2018-05-08T15:40:58.690Z,27.16
2018-05-08T15:41:58.758Z,27.05
2018-05-08T15:42:58.697Z,27.01
2018-05-08T15:43:58.710Z,26.99
2018-05-08T15:44:58.716Z,26.83
2018-05-08T15:45:58.742Z,26.81
2018-05-08T15:46:58.749Z,26.91
2018-05-08T15:47:58.777Z,26.87
2018-05-08T15:48:58.786Z,26.76
2018-05-08T15:49:58.835Z,26.73
2018-05-08T15:50:58.847Z,26.81
2018-05-08T15:51:58.841Z,26.67
2018-05-08T15:52:58.855Z,26.69
2018-05-08T15:53:58.874Z,26.67
2018-05-08T15:54:58.892Z,26.74
2018-05-08T15:55:58.912Z,26.73
2018-05-08T15:56:58.928Z,26.67
2018-05-08T15:57:58.948Z,26.72
2018-05-08T15:58:58.964Z,26.72
2018-05-08T15:59:58.971Z,26.67
2018-05-08T16:00:59.006Z,26.65
2018-05-08T16:01:59.012Z,26.67
2018-05-08T16:02:59.050Z,26.55
2018-05-08T16:03:59.057Z,26.59
2018-05-08T16:04:59.062Z,26.57
2018-05-08T16:05:59.084Z,26.57
2018-05-08T16:06:59.113Z,26.57
2018-05-08T16:07:59.118Z,26.55
2018-05-08T16:08:59.128Z,26.50
2018-05-08T16:09:59.199Z,26.59
2018-05-08T16:10:59.162Z,26.54
2018-05-08T16:11:59.215Z,26.49
2018-05-08T16:12:59.223Z,26.49
2018-05-08T16:13:59.220Z,26.47
2018-05-08T16:14:59.347Z,26.54
2018-05-08T16:15:59.246Z,26.52
2018-05-08T16:16:59.356Z,26.47
2018-05-08T16:17:59.283Z,26.47
2018-05-08T16:18:59.371Z,26.46
2018-05-08T16:19:59.317Z,26.37
2018-05-08T16:20:59.451Z,26.40
2018-05-08T16:21:59.353Z,26.39
2018-05-08T16:22:59.402Z,26.39
2018-05-08T16:23:59.407Z,26.40
2018-05-08T16:24:59.424Z,26.29
2018-05-08T16:25:59.528Z,26.31
2018-05-08T16:26:59.438Z,26.28
2018-05-08T16:27:59.532Z,26.18
2018-05-08T16:28:59.477Z,26.25
2018-05-08T16:29:59.553Z,26.28
2018-05-08T16:30:59.519Z,26.25
2018-05-08T16:31:59.568Z,26.29
2018-05-08T16:32:59.554Z,26.29
2018-05-08T16:33:59.676Z,26.24
2018-05-08T16:34:59.575Z,26.21
2018-05-08T16:35:59.689Z,26.18
2018-05-08T16:36:59.603Z,26.17
2018-05-08T16:37:59.704Z,26.17
2018-05-08T16:38:59.647Z,26.17
2018-05-08T16:39:59.721Z,26.18
2018-05-08T16:40:59.686Z,26.17
2018-05-08T16:41:59.743Z,26.18
2018-05-08T16:42:59.725Z,26.11
2018-05-08T16:43:59.877Z,25.87
2018-05-08T16:44:59.854Z,25.94
2018-05-08T16:45:59.866Z,25.89
2018-05-08T16:46:59.786Z,25.86
2018-05-08T16:47:59.880Z,25.86
2018-05-08T16:48:59.824Z,25.89
2018-05-08T16:49:59.910Z,25.86
2018-05-08T16:50:59.850Z,25.83
2018-05-08T16:52:00.005Z,25.77
2018-05-08T16:52:59.885Z,25.75
2018-05-08T16:54:00.083Z,25.62
2018-05-08T16:54:59.923Z,25.62
2018-05-08T16:56:00.034Z,25.62
2018-05-08T16:56:59.967Z,25.67
2018-05-08T16:58:00.061Z,25.71
2018-05-08T16:58:59.995Z,25.64
2018-05-08T17:00:00.104Z,25.56
2018-05-08T17:01:00.027Z,25.52
2018-05-08T17:02:00.176Z,25.57
2018-05-08T17:03:00.059Z,25.61
2018-05-08T17:04:00.197Z,25.56
2018-05-08T17:05:00.112Z,25.54
2018-05-08T17:06:01.227Z,25.49
2018-05-08T17:07:00.133Z,25.49
2018-05-08T17:08:00.222Z,25.46
2018-05-08T17:09:00.191Z,25.49
2018-05-08T17:10:00.235Z,25.42
2018-05-08T17:11:00.198Z,25.42
2018-05-08T17:12:00.349Z,25.31
2018-05-08T17:13:00.237Z,25.46
2018-05-08T17:14:00.368Z,25.35
2018-05-08T17:15:00.270Z,25.37
2018-05-08T17:16:00.379Z,25.31
2018-05-08T17:17:00.303Z,25.30
2018-05-08T17:18:00.390Z,25.19
2018-05-08T17:19:00.341Z,25.22
2018-05-08T17:20:00.507Z,25.15
2018-05-08T17:21:00.381Z,25.17
2018-05-08T17:22:00.521Z,25.12
2018-05-08T17:23:00.408Z,25.01
2018-05-08T17:24:00.541Z,25.05
2018-05-08T17:25:00.438Z,24.95
2018-05-08T17:26:00.546Z,24.92
2018-05-08T17:27:00.476Z,24.87
2018-05-08T17:28:00.567Z,24.92
2018-05-08T17:29:00.517Z,24.90
2018-05-08T17:30:00.680Z,24.88
2018-05-08T17:31:00.552Z,24.88
2018-05-08T17:32:00.689Z,24.75
2018-05-08T17:33:00.574Z,24.77
2018-05-08T17:34:00.713Z,24.80
2018-05-08T17:35:00.614Z,24.75
2018-05-08T17:36:00.722Z,24.69
2018-05-08T17:37:00.696Z,24.63
2018-05-08T17:38:00.734Z,24.60
2018-05-08T17:39:00.694Z,24.64
2018-05-08T17:40:00.852Z,24.56
2018-05-08T17:41:00.726Z,24.57
2018-05-08T17:42:01.909Z,24.53
2018-05-08T17:43:00.763Z,24.50
2018-05-08T17:44:00.872Z,24.50
2018-05-08T17:45:00.793Z,24.42
2018-05-08T17:46:01.916Z,24.56
2018-05-08T17:47:00.954Z,24.44
2018-05-08T17:48:01.004Z,24.44
2018-05-08T17:49:00.867Z,24.42
2018-05-08T17:50:01.023Z,24.29
2018-05-08T17:51:00.906Z,24.26
2018-05-08T17:52:01.104Z,24.34
2018-05-08T17:53:00.962Z,24.29
2018-05-08T17:54:01.070Z,24.29
2018-05-08T17:55:00.991Z,24.22
2018-05-08T17:56:01.061Z,24.24
2018-05-08T17:57:01.003Z,24.20
2018-05-08T17:58:01.177Z,24.10
2018-05-08T17:59:01.041Z,24.04
2018-05-08T18:00:01.296Z,24.02
2018-05-08T18:01:01.099Z,24.00
2018-05-08T18:02:01.209Z,23.90
2018-05-08T18:03:01.135Z,23.94
2018-05-08T18:04:01.327Z,23.83
2018-05-08T18:05:01.152Z,23.72
2018-05-08T18:06:02.261Z,23.82
2018-05-08T18:07:01.188Z,23.72
2018-05-08T18:08:01.375Z,23.62
2018-05-08T18:09:01.215Z,23.68
2018-05-08T18:10:01.364Z,23.65
2018-05-08T18:11:01.255Z,23.58
2018-05-08T18:12:01.383Z,23.58
2018-05-08T18:13:01.299Z,23.52
2018-05-08T18:14:01.391Z,23.43
2018-05-08T18:15:01.372Z,23.47
2018-05-08T18:16:01.507Z,23.43
2018-05-08T18:17:01.373Z,23.49
2018-05-08T18:18:01.525Z,23.40
2018-05-08T18:19:01.401Z,23.39
2018-05-08T18:20:01.533Z,23.31
2018-05-08T18:21:01.442Z,23.23
2018-05-08T18:22:01.566Z,23.23
2018-05-08T18:23:01.515Z,23.29
2018-05-08T18:24:01.713Z,23.32
2018-05-08T18:25:01.548Z,23.19
2018-05-08T18:26:01.677Z,23.12
2018-05-08T18:27:01.544Z,23.05
2018-05-08T18:28:01.564Z,22.99
2018-05-08T18:29:01.577Z,22.99
2018-05-08T18:30:01.601Z,22.96
2018-05-08T18:31:01.629Z,22.90
2018-05-08T18:32:01.636Z,22.83
2018-05-08T18:33:01.642Z,22.74
2018-05-08T18:34:01.670Z,22.74
2018-05-08T18:35:01.678Z,22.69
2018-05-08T18:36:01.720Z,22.65
2018-05-08T18:37:01.712Z,22.68
2018-05-08T18:38:01.758Z,22.68
2018-05-08T18:39:01.754Z,22.62
2018-05-08T18:40:01.771Z,22.56
2018-05-08T18:41:01.782Z,22.52
2018-05-08T18:42:01.803Z,22.56
2018-05-08T18:43:01.823Z,22.39
2018-05-08T18:44:01.925Z,22.41
2018-05-08T18:45:01.862Z,22.31
2018-05-08T18:46:01.871Z,22.28
2018-05-08T18:47:01.895Z,22.28
2018-05-08T18:48:01.907Z,22.27
2018-05-08T18:49:01.921Z,22.16
2018-05-08T18:50:01.937Z,22.10
2018-05-08T18:51:01.960Z,22.07
2018-05-08T18:52:01.978Z,22.09
2018-05-08T18:53:01.990Z,22.07
2018-05-08T18:54:02.020Z,22.12
2018-05-08T18:55:02.059Z,21.99
2018-05-08T18:56:02.049Z,22.10
2018-05-08T18:57:02.062Z,22.12
2018-05-08T18:58:02.082Z,21.95
2018-05-08T18:59:02.087Z,21.99
2018-05-08T19:00:02.118Z,21.82
2018-05-08T19:01:02.126Z,21.75
2018-05-08T19:02:02.169Z,21.75
2018-05-08T19:03:02.185Z,21.72
2018-05-08T19:04:02.176Z,21.59
2018-05-08T19:05:02.357Z,21.60
2018-05-08T19:06:02.215Z,21.66
2018-05-08T19:07:03.404Z,21.59
2018-05-08T19:08:02.250Z,21.54
2018-05-08T19:09:02.383Z,21.53
2018-05-08T19:10:02.286Z,21.54
2018-05-08T19:11:02.423Z,21.42
2018-05-08T19:12:02.319Z,21.45
2018-05-08T19:13:02.511Z,21.38
2018-05-08T19:14:02.379Z,21.41
2018-05-08T19:15:02.527Z,21.34
2018-05-08T19:16:02.381Z,21.45
2018-05-08T19:17:02.538Z,21.38
2018-05-08T19:18:02.419Z,21.34
2018-05-08T19:19:02.554Z,21.24
2018-05-08T19:20:02.472Z,21.20
2018-05-08T19:21:02.477Z,21.14
2018-05-08T19:22:02.681Z,21.16
2018-05-08T19:23:02.500Z,21.13
2018-05-08T19:24:02.704Z,21.06
2018-05-08T19:25:02.529Z,20.98
2018-05-08T19:26:02.711Z,21.05
2018-05-08T19:27:02.570Z,21.08
2018-05-08T19:28:02.720Z,20.91
2018-05-08T19:29:02.616Z,20.91
2018-05-08T19:30:02.733Z,20.91
2018-05-08T19:31:02.642Z,20.80
2018-05-08T19:32:02.989Z,20.86
2018-05-08T19:33:02.666Z,20.90
2018-05-08T19:34:02.925Z,20.84
2018-05-08T19:35:02.731Z,20.74
2018-05-08T19:36:02.888Z,20.79
2018-05-08T19:37:02.741Z,20.69
2018-05-08T19:38:02.896Z,20.68
2018-05-08T19:39:02.780Z,20.71
2018-05-08T19:40:02.910Z,20.58
2018-05-08T19:41:02.816Z,20.58
2018-05-08T19:42:02.948Z,20.54
2018-05-08T19:43:02.840Z,20.51
2018-05-08T19:44:02.889Z,20.46
2018-05-08T19:45:02.920Z,20.47
2018-05-08T19:46:02.894Z,20.47
2018-05-08T19:47:02.908Z,20.42
2018-05-08T19:48:02.918Z,20.38
2018-05-08T19:49:02.981Z,20.33
2018-05-08T19:50:02.984Z,20.28
2018-05-08T19:51:02.971Z,20.34
2018-05-08T19:52:02.993Z,20.18
2018-05-08T19:53:03.012Z,20.24
2018-05-08T19:54:03.214Z,20.28
2018-05-08T19:55:03.050Z,20.20
2018-05-08T19:56:03.057Z,20.23
2018-05-08T19:57:03.064Z,20.20
2018-05-08T19:58:03.240Z,20.18
2018-05-08T19:59:03.112Z,20.03
2018-05-08T20:00:04.271Z,20.02
2018-05-08T20:01:03.148Z,20.03
2018-05-08T20:02:03.376Z,19.97
2018-05-08T20:03:03.171Z,19.88
2018-05-08T20:04:03.387Z,19.87
2018-05-08T20:05:03.203Z,20.03
2018-05-08T20:06:03.308Z,19.94
2018-05-08T20:07:03.231Z,19.93
2018-05-08T20:08:03.316Z,19.84
2018-05-08T20:09:03.263Z,19.94
2018-05-08T20:10:03.318Z,19.91
2018-05-08T20:11:03.312Z,19.83
2018-05-08T20:12:03.433Z,19.80
2018-05-08T20:13:03.373Z,19.83
2018-05-08T20:14:03.464Z,19.70
2018-05-08T20:15:03.381Z,19.68
2018-05-08T20:16:03.463Z,19.68
2018-05-08T20:17:03.400Z,19.70
2018-05-08T20:18:03.504Z,19.69
2018-05-08T20:19:03.436Z,19.68
2018-05-08T20:20:03.487Z,19.54
2018-05-08T20:21:03.455Z,19.55
2018-05-08T20:22:03.543Z,19.47
2018-05-08T20:23:03.504Z,19.54
2018-05-08T20:24:03.617Z,19.53
2018-05-08T20:25:03.562Z,19.50
2018-05-08T20:26:03.631Z,19.43
2018-05-08T20:27:03.566Z,19.40
2018-05-08T20:28:03.581Z,19.46
2018-05-08T20:29:03.589Z,19.36
2018-05-08T20:30:03.653Z,19.46
2018-05-08T20:31:03.721Z,19.36
2018-05-08T20:32:03.679Z,19.36
2018-05-08T20:33:03.660Z,19.32
2018-05-08T20:34:03.784Z,19.33
2018-05-08T20:35:03.685Z,19.31
2018-05-08T20:36:03.807Z,19.25
2018-05-08T20:37:03.747Z,19.24
2018-05-08T20:38:03.805Z,19.29
2018-05-08T20:39:03.751Z,19.18
2018-05-08T20:40:03.871Z,19.14
2018-05-08T20:41:03.782Z,19.15
2018-05-08T20:42:03.860Z,19.06
2018-05-08T20:43:03.848Z,19.01
2018-05-08T20:44:04.048Z,19.02
2018-05-08T20:45:03.850Z,18.99
2018-05-08T20:46:04.075Z,18.90
2018-05-08T20:47:03.883Z,18.84
2018-05-08T20:48:03.973Z,18.86
2018-05-08T20:49:03.924Z,18.84
2018-05-08T20:50:03.985Z,18.70
2018-05-08T20:51:03.935Z,18.68
2018-05-08T20:52:04.002Z,18.70
2018-05-08T20:53:03.972Z,18.70
2018-05-08T20:54:04.019Z,18.77
2018-05-08T20:55:04.018Z,18.67
2018-05-08T20:56:04.196Z,18.79
2018-05-08T20:57:04.032Z,18.64
2018-05-08T20:58:04.146Z,18.59
2018-05-08T20:59:04.075Z,18.65
2018-05-08T21:00:04.198Z,18.55
2018-05-08T21:01:04.310Z,18.61
2018-05-08T21:02:04.217Z,18.65
2018-05-08T21:03:04.193Z,18.62
2018-05-08T21:04:04.193Z,18.57
2018-05-08T21:05:04.157Z,18.49
2018-05-08T21:06:04.337Z,18.54
2018-05-08T21:07:04.201Z,18.52
2018-05-08T21:08:04.393Z,18.52
2018-05-08T21:09:04.255Z,18.43
2018-05-08T21:10:04.393Z,18.44
2018-05-08T21:11:04.272Z,18.39
2018-05-08T21:12:04.391Z,18.42
2018-05-08T21:13:04.290Z,18.34
2018-05-08T21:14:04.406Z,18.34
2018-05-08T21:15:04.317Z,18.27
2018-05-08T21:16:04.426Z,18.27
2018-05-08T21:17:04.348Z,18.22
2018-05-08T21:18:04.538Z,18.18
2018-05-08T21:19:04.390Z,18.28
2018-05-08T21:20:04.580Z,18.37
2018-05-08T21:21:04.411Z,18.28
2018-05-08T21:22:05.590Z,18.27
2018-05-08T21:23:04.492Z,18.25
2018-05-08T21:24:04.630Z,18.27
2018-05-08T21:25:04.486Z,18.25
2018-05-08T21:26:04.657Z,18.33
2018-05-08T21:27:04.523Z,18.17
2018-05-08T21:28:04.544Z,18.21
2018-05-08T21:29:04.540Z,18.19
2018-05-08T21:30:04.687Z,18.17
2018-05-08T21:31:04.589Z,18.22
2018-05-08T21:32:04.791Z,18.21
2018-05-08T21:33:04.606Z,18.17
2018-05-08T21:34:04.639Z,18.00
2018-05-08T21:35:04.634Z,18.18
2018-05-08T21:36:04.648Z,18.07
2018-05-08T21:37:04.695Z,18.04
2018-05-08T21:38:04.674Z,18.09
2018-05-08T21:39:04.702Z,18.04
2018-05-08T21:40:04.713Z,17.97
2018-05-08T21:41:04.747Z,18.02
2018-05-08T21:42:04.755Z,17.95
2018-05-08T21:43:04.752Z,18.04
2018-05-08T21:44:04.766Z,17.92
2018-05-08T21:45:04.786Z,18.02
2018-05-08T21:46:04.797Z,18.00
2018-05-08T21:47:04.932Z,18.03
2018-05-08T21:48:04.828Z,17.91
2018-05-08T21:49:04.860Z,17.89
2018-05-08T21:50:04.914Z,17.88
2018-05-08T21:51:04.929Z,17.88
2018-05-08T21:52:04.901Z,17.78
2018-05-08T21:53:05.015Z,17.81
2018-05-08T21:54:04.957Z,17.73
2018-05-08T21:55:04.956Z,17.73
2018-05-08T21:56:04.997Z,17.70
2018-05-08T21:57:05.000Z,17.69
2018-05-08T21:58:05.077Z,17.64
2018-05-08T21:59:05.036Z,17.59
2018-05-08T22:00:05.017Z,17.57
2018-05-08T22:01:05.032Z,17.63
2018-05-08T22:02:05.117Z,17.64
2018-05-08T22:03:05.064Z,17.54
2018-05-08T22:04:05.121Z,17.53
2018-05-08T22:05:05.099Z,17.54
2018-05-08T22:06:05.103Z,17.44
2018-05-08T22:07:05.271Z,17.47
2018-05-08T22:08:05.155Z,17.38
2018-05-08T22:09:05.164Z,17.50
2018-05-08T22:10:05.169Z,17.40
2018-05-08T22:11:05.176Z,17.44
2018-05-08T22:12:05.195Z,17.32
2018-05-08T22:13:05.336Z,17.30
2018-05-08T22:14:05.239Z,17.30
2018-05-08T22:15:05.238Z,17.38
2018-05-08T22:16:05.257Z,17.36
2018-05-08T22:17:05.273Z,17.28
2018-05-08T22:18:05.322Z,17.23
2018-05-08T22:19:05.305Z,17.26
2018-05-08T22:20:05.359Z,17.20
2018-05-08T22:21:05.334Z,17.22
2018-05-08T22:22:07.895Z,17.20
2018-05-08T22:23:05.361Z,17.14
2018-05-08T22:24:05.425Z,17.11
2018-05-08T22:25:05.391Z,17.07
2018-05-08T22:26:05.407Z,17.10
2018-05-08T22:27:05.421Z,17.04
2018-05-08T22:28:05.551Z,17.00
2018-05-08T22:29:05.452Z,17.03
2018-05-08T22:30:05.490Z,17.04
2018-05-08T22:31:05.569Z,16.99
2018-05-08T22:32:05.520Z,17.04
2018-05-08T22:33:05.525Z,16.99
2018-05-08T22:34:05.535Z,16.98
2018-05-08T22:35:05.603Z,16.99
2018-05-08T22:36:05.551Z,16.95
2018-05-08T22:37:05.606Z,16.93
2018-05-08T22:38:05.582Z,16.89
2018-05-08T22:39:05.622Z,17.00
2018-05-08T22:40:05.619Z,16.92
2018-05-08T22:41:05.760Z,16.93
2018-05-08T22:42:05.636Z,16.86
2018-05-08T22:43:07.673Z,16.83
2018-05-08T22:44:05.701Z,16.95
2018-05-08T22:45:07.700Z,16.89
2018-05-08T22:46:05.713Z,16.86
2018-05-08T22:47:06.744Z,16.75
2018-05-08T22:48:05.734Z,16.81
2018-05-08T22:49:06.765Z,16.85
2018-05-08T22:50:05.767Z,16.78
2018-05-08T22:51:10.414Z,16.81
2018-05-08T22:52:05.796Z,16.73
2018-05-08T22:53:06.815Z,16.75
2018-05-08T22:54:05.821Z,16.71
2018-05-08T22:55:17.417Z,16.68
2018-05-08T22:56:05.881Z,16.60
2018-05-08T22:57:05.887Z,16.62
2018-05-08T22:58:05.888Z,16.59
2018-05-08T22:59:06.918Z,16.65
2018-05-08T23:00:05.909Z,16.56
2018-05-08T23:01:06.938Z,16.59
2018-05-08T23:02:05.943Z,16.58
2018-05-08T23:03:12.905Z,16.58
2018-05-08T23:04:05.970Z,16.55
2018-05-08T23:05:05.987Z,16.52
2018-05-08T23:06:06.000Z,16.59
2018-05-08T23:07:06.037Z,16.56
2018-05-08T23:08:06.033Z,16.55
2018-05-08T23:09:10.934Z,16.53
2018-05-08T23:10:06.067Z,16.49
2018-05-08T23:11:11.991Z,16.44
2018-05-08T23:12:06.093Z,16.30
2018-05-08T23:13:08.227Z,16.41
2018-05-08T23:14:06.133Z,16.31
2018-05-08T23:15:07.199Z,16.33
2018-05-08T23:16:06.149Z,16.34
2018-05-08T23:17:08.250Z,16.25
2018-05-08T23:18:06.229Z,16.35
2018-05-08T23:19:06.308Z,16.31
2018-05-08T23:20:06.216Z,16.30
2018-05-08T23:21:06.233Z,16.38
2018-05-08T23:22:06.236Z,16.23
2018-05-08T23:23:11.921Z,16.16
2018-05-08T23:24:06.270Z,16.16
2018-05-08T23:25:10.921Z,16.20
2018-05-08T23:26:06.296Z,16.23
2018-05-08T23:27:08.327Z,16.22
2018-05-08T23:28:06.325Z,16.14
2018-05-08T23:29:08.353Z,16.06
2018-05-08T23:30:06.356Z,16.15
2018-05-08T23:31:06.400Z,16.15
2018-05-08T23:32:06.395Z,16.09
2018-05-08T23:33:06.404Z,16.14
2018-05-08T23:34:06.421Z,16.04
2018-05-08T23:35:06.426Z,16.09
2018-05-08T23:36:06.437Z,15.99
2018-05-08T23:37:06.470Z,15.97
2018-05-08T23:38:06.470Z,15.86
2018-05-08T23:39:06.493Z,15.78
2018-05-08T23:40:06.500Z,15.84
2018-05-08T23:41:06.519Z,15.76
2018-05-08T23:42:06.528Z,15.79
2018-05-08T23:43:06.557Z,15.79
2018-05-08T23:44:06.562Z,15.84
2018-05-08T23:45:06.583Z,15.68
2018-05-08T23:46:06.599Z,15.78
2018-05-08T23:47:06.611Z,15.74
2018-05-08T23:48:06.621Z,15.75
2018-05-08T23:49:06.634Z,15.59
2018-05-08T23:50:06.648Z,15.66
2018-05-08T23:51:06.656Z,15.61
2018-05-08T23:52:06.674Z,15.56
2018-05-08T23:53:06.741Z,15.57
2018-05-08T23:54:06.703Z,15.54
2018-05-08T23:55:06.754Z,15.49
2018-05-08T23:56:06.734Z,15.56
2018-05-08T23:57:06.778Z,15.54
2018-05-08T23:58:06.773Z,15.60
2018-05-08T23:59:06.786Z,15.52
